TAF KPNE
KPNE 280520Z 2806/2906 VRB03KT P6SM OVC080 FM281000 VRB02KT P6SM OVC040 FM281600 27008KT P6SM OVC050 FM290000 29007KT P6SM BKN250=
METAR KPNE
WC KPNE
WS KPNE
WV KPNE